Time;durP1;ratioP1;P1;durP2;ratioP2;P2;SDS_P1;SDS_P2;PMS_P1;PMS_P2;Temp;Humidity;BMP_temperature;BMP_pressure;BME280_temperature;BME280_humidity;BME280_pressure;Samples;Min_cycle;Max_cycle;Signal;HPM_P1;HPM_P2
2021/03/07 00:00:59;;;;;;;8.02;4.90;;;;;;;4.17;31.68;102449.09;5091760;28;20526;-75
2021/03/07 00:03:27;;;;;;;7.13;4.47;;;;;;;4.15;31.68;102447.38;5092123;28;20496;-74
2021/03/07 00:05:54;;;;;;;6.53;4.07;;;;;;;4.14;31.85;102443.75;5082747;28;20419;-74
2021/03/07 00:08:23;;;;;;;6.22;4.25;;;;;;;4.14;31.58;102445.59;5084523;28;20106;-74
2021/03/07 00:10:50;;;;;;;6.65;3.83;;;;;;;4.10;31.55;102452.06;5077458;28;20046;-73
2021/03/07 00:13:18;;;;;;;5.70;3.80;;;;;;;4.09;31.88;102448.47;5074016;28;20036;-73
2021/03/07 00:16:05;;;;;;;6.32;3.83;;;;;;;4.06;31.85;102451.28;5092479;28;20137;-73
2021/03/07 00:18:33;;;;;;;4.95;3.78;;;;;;;4.05;32.10;102444.06;5093452;28;20060;-73
2021/03/07 00:21:01;;;;;;;6.95;3.75;;;;;;;4.03;31.71;102444.13;5091858;28;20040;-74
2021/03/07 00:23:29;;;;;;;5.07;3.58;;;;;;;4.03;32.04;102448.66;5098078;28;20470;-74
2021/03/07 00:25:56;;;;;;;6.60;3.97;;;;;;;4.00;32.07;102446.06;5093130;28;20040;-74
2021/03/07 00:28:24;;;;;;;6.60;4.00;;;;;;;3.99;31.85;102439.75;5092367;28;20487;-73
2021/03/07 00:30:51;;;;;;;5.90;3.75;;;;;;;3.97;32.08;102441.63;5091604;28;20039;-73
2021/03/07 00:33:18;;;;;;;6.95;4.20;;;;;;;3.96;31.95;102442.56;5078284;28;20058;-73
2021/03/07 00:35:46;;;;;;;6.93;4.15;;;;;;;3.94;32.31;102447.16;5087482;28;20091;-73
2021/03/07 00:38:13;;;;;;;6.90;4.30;;;;;;;3.93;31.96;102441.81;5088475;28;20075;-74
2021/03/07 00:40:44;;;;;;;7.90;4.00;;;;;;;3.92;32.36;102443.63;5083456;28;20068;-73
2021/03/07 00:43:11;;;;;;;6.63;4.35;;;;;;;3.90;32.29;102442.78;5087901;28;20040;-73
2021/03/07 00:45:38;;;;;;;5.32;3.65;;;;;;;3.89;32.32;102443.72;5084509;28;20043;-74
2021/03/07 00:48:08;;;;;;;6.68;3.88;;;;;;;3.87;32.17;102445.56;5088993;28;20074;-73
2021/03/07 00:50:36;;;;;;;6.05;3.83;;;;;;;3.85;32.24;102447.47;5083053;28;20586;-74
2021/03/07 00:53:03;;;;;;;7.22;4.22;;;;;;;3.85;32.49;102449.28;5095907;28;20487;-74
2021/03/07 00:55:30;;;;;;;6.80;3.85;;;;;;;3.83;32.19;102443.91;5083886;28;20076;-73
2021/03/07 00:57:58;;;;;;;5.68;3.70;;;;;;;3.83;32.18;102443.03;5087805;28;20043;-73
2021/03/07 01:00:28;;;;;;;6.32;3.90;;;;;;;3.81;32.64;102439.47;5087246;28;20047;-73
2021/03/07 01:02:57;;;;;;;7.65;4.15;;;;;;;3.77;32.21;102438.72;5084854;28;20028;-73
2021/03/07 01:05:27;;;;;;;6.65;4.10;;;;;;;3.76;32.63;102434.25;5085544;28;20539;-73
2021/03/07 01:07:55;;;;;;;7.10;4.22;;;;;;;3.75;32.39;102431.56;5088097;28;20036;-73
2021/03/07 01:10:26;;;;;;;6.72;3.88;;;;;;;3.75;32.58;102437.88;5092791;28;20047;-73
2021/03/07 01:12:54;;;;;;;5.43;3.53;;;;;;;3.70;32.21;102432.59;5085215;28;20036;-74
2021/03/07 01:15:27;;;;;;;6.25;4.18;;;;;;;3.71;32.90;102433.47;5087988;28;20119;-74
2021/03/07 01:17:54;;;;;;;5.13;3.63;;;;;;;3.66;32.51;102432.75;5089368;28;20130;-74
2021/03/07 01:20:22;;;;;;;7.00;4.35;;;;;;;3.65;32.38;102426.47;5092786;28;20050;-74
2021/03/07 01:22:54;;;;;;;7.63;4.50;;;;;;;3.66;32.91;102432.75;5092740;28;20502;-73
2021/03/07 01:25:23;;;;;;;6.82;4.50;;;;;;;3.64;32.63;102429.22;5084815;28;20055;-73
2021/03/07 01:27:50;;;;;;;5.65;4.00;;;;;;;3.62;32.44;102428.38;5082621;28;20036;-73
2021/03/07 01:30:22;;;;;;;6.95;4.18;;;;;;;3.61;32.67;102421.22;5086579;28;20043;-73
2021/03/07 01:32:51;;;;;;;6.43;4.00;;;;;;;3.59;32.95;102421.22;5071336;28;20032;-74
2021/03/07 01:35:21;;;;;;;5.97;4.13;;;;;;;3.58;32.57;102416.75;5088027;28;20153;-72
2021/03/07 01:37:50;;;;;;;7.78;4.63;;;;;;;3.55;32.47;102410.53;5085855;28;20089;-74
2021/03/07 01:40:21;;;;;;;6.97;4.57;;;;;;;3.54;32.91;102406.06;5085260;28;20036;-73
2021/03/07 01:43:08;;;;;;;7.20;4.13;;;;;;;3.50;32.99;102405.28;5086434;28;20414;-73
2021/03/07 01:45:56;;;;;;;7.45;4.38;;;;;;;3.49;32.92;102410.75;5085062;28;20048;-73
2021/03/07 01:48:46;;;;;;;7.80;4.53;;;;;;;3.47;32.82;102399.06;5087661;28;20040;-73
2021/03/07 01:51:34;;;;;;;8.40;5.40;;;;;;;3.41;32.77;102396.56;5093512;28;20054;-74
2021/03/07 01:54:01;;;;;;;7.28;4.40;;;;;;;3.39;32.56;102395.72;5098048;28;20035;-73
2021/03/07 01:56:51;;;;;;;7.05;4.75;;;;;;;3.37;32.89;102397.63;5087169;28;20047;-73
2021/03/07 01:59:30;;;;;;;6.47;4.30;;;;;;;3.34;33.14;102385.06;5068520;28;20051;-73
2021/03/07 02:02:17;;;;;;;6.75;4.32;;;;;;;3.30;33.03;102386.97;5088570;28;20039;-73
2021/03/07 02:05:00;;;;;;;7.75;4.50;;;;;;;3.29;32.90;102397.84;5091192;28;20043;-73
2021/03/07 02:07:48;;;;;;;6.63;3.97;;;;;;;3.26;33.14;102390.72;5078596;28;20143;-73
2021/03/07 02:10:38;;;;;;;6.80;4.15;;;;;;;3.25;33.28;102386.25;5088798;28;20055;-73
2021/03/07 02:13:31;;;;;;;6.28;4.35;;;;;;;3.24;33.37;102381.75;5087175;28;20064;-73
2021/03/07 02:16:23;;;;;;;6.63;4.03;;;;;;;3.22;33.60;102380.03;5091038;28;20450;-73
2021/03/07 02:19:11;;;;;;;6.50;4.03;;;;;;;3.19;33.20;102372.94;5085067;28;20483;-73
2021/03/07 02:22:01;;;;;;;5.45;3.95;;;;;;;3.19;33.09;102372.03;5087898;28;20044;-73
2021/03/07 02:24:49;;;;;;;4.97;3.83;;;;;;;3.18;33.43;102367.56;5094518;28;20076;-73
2021/03/07 02:27:37;;;;;;;6.13;3.80;;;;;;;3.16;33.28;102362.19;5094556;28;20122;-73
2021/03/07 02:30:26;;;;;;;5.65;3.80;;;;;;;3.14;32.90;102353.25;5093772;28;20051;-73
2021/03/07 02:33:17;;;;;;;5.80;3.70;;;;;;;3.14;33.99;102352.34;5083875;28;20454;-73
2021/03/07 02:36:09;;;;;;;6.40;3.88;;;;;;;3.10;33.64;102351.59;5086048;28;20131;-73
2021/03/07 02:38:58;;;;;;;9.68;4.30;;;;;;;3.08;33.03;102358.84;5083757;28;20044;-74
2021/03/07 02:41:47;;;;;;;5.85;3.55;;;;;;;3.05;33.05;102345.41;5086895;28;20044;-73
2021/03/07 02:44:37;;;;;;;5.75;3.60;;;;;;;3.01;33.24;102341.06;5088555;28;20056;-73
2021/03/07 02:47:28;;;;;;;5.72;3.42;;;;;;;2.98;32.98;102345.66;5091714;28;20044;-73
2021/03/07 02:50:20;;;;;;;5.63;3.65;;;;;;;2.95;33.26;102338.53;5088882;28;20524;-73
2021/03/07 02:53:10;;;;;;;5.80;3.40;;;;;;;2.92;33.25;102341.34;5090026;28;20059;-73
2021/03/07 02:56:00;;;;;;;7.35;3.83;;;;;;;2.90;33.32;102338.66;5090886;28;20070;-73
2021/03/07 02:58:56;;;;;;;7.18;3.90;;;;;;;2.89;33.76;102336.91;5089194;28;20222;-73
2021/03/07 03:01:43;;;;;;;6.88;4.03;;;;;;;2.85;33.22;102334.34;5086230;28;20044;-73
2021/03/07 03:04:34;;;;;;;5.93;3.42;;;;;;;2.83;33.82;102325.41;5091209;28;20048;-73
2021/03/07 03:07:23;;;;;;;7.10;3.63;;;;;;;2.78;33.59;102325.56;5082924;28;20052;-73
2021/03/07 03:10:13;;;;;;;7.22;3.60;;;;;;;2.75;33.71;102332.84;5089545;28;20422;-73
2021/03/07 03:12:42;;;;;;;6.03;3.80;;;;;;;2.72;33.43;102323.00;5075918;28;20040;-73
2021/03/07 03:15:11;;;;;;;6.95;3.90;;;;;;;2.71;33.67;102320.38;5076469;28;20044;-73
2021/03/07 03:17:40;;;;;;;6.47;3.88;;;;;;;2.69;33.34;102315.03;5078529;28;20072;-73
2021/03/07 03:20:13;;;;;;;6.53;3.80;;;;;;;2.69;33.92;102319.53;5082997;28;21650;-74
2021/03/07 03:22:41;;;;;;;7.07;3.95;;;;;;;2.66;33.46;102319.63;5081257;28;20131;-74
2021/03/07 03:25:10;;;;;;;6.93;4.07;;;;;;;2.66;33.94;102320.50;5077651;28;20162;-73
2021/03/07 03:27:37;;;;;;;7.45;4.30;;;;;;;2.63;33.58;102315.19;5071123;28;20058;-73
2021/03/07 03:30:11;;;;;;;7.68;4.38;;;;;;;2.67;34.39;102321.41;5077146;28;20131;-74
2021/03/07 03:32:40;;;;;;;8.45;4.32;;;;;;;2.63;34.03;102317.03;5078534;28;20039;-73
2021/03/07 03:35:09;;;;;;;7.20;3.85;;;;;;;2.62;33.74;102313.44;5080765;28;20196;-73
2021/03/07 03:37:37;;;;;;;6.90;3.88;;;;;;;2.62;33.81;102309.84;5067879;28;20682;-73
2021/03/07 03:40:08;;;;;;;6.68;3.88;;;;;;;2.61;34.00;102313.47;5066959;28;20099;-73
2021/03/07 03:42:38;;;;;;;6.18;4.00;;;;;;;2.60;33.59;102311.72;5055540;28;20040;-73
2021/03/07 03:45:10;;;;;;;7.45;3.83;;;;;;;2.57;34.00;102307.28;5072808;28;20055;-74
2021/03/07 03:47:46;;;;;;;6.80;3.80;;;;;;;2.58;34.40;102308.16;5071744;28;20068;-73
2021/03/07 03:50:15;;;;;;;7.35;3.83;;;;;;;2.56;33.79;102308.19;5070580;28;20454;-73
2021/03/07 03:52:46;;;;;;;6.57;3.80;;;;;;;2.54;34.14;102307.38;5073671;28;20057;-74
2021/03/07 03:55:18;;;;;;;7.13;4.00;;;;;;;2.52;34.05;102302.03;5071428;28;20052;-73
2021/03/07 03:57:53;;;;;;;7.70;4.07;;;;;;;2.50;34.16;102295.78;5082802;28;20071;-73
2021/03/07 04:00:27;;;;;;;6.60;4.00;;;;;;;2.49;34.10;102296.69;5085709;28;20093;-73
2021/03/07 04:02:59;;;;;;;6.45;3.97;;;;;;;2.47;33.89;102294.97;5077681;28;20032;-73
2021/03/07 04:05:49;;;;;;;7.93;4.03;;;;;;;2.43;33.92;102299.59;5086487;28;20044;-73
2021/03/07 04:08:37;;;;;;;8.13;4.22;;;;;;;2.39;34.08;102297.91;5067321;28;20051;-73
2021/03/07 04:11:25;;;;;;;8.35;4.57;;;;;;;2.38;34.04;102296.13;5084548;28;20112;-73
2021/03/07 04:14:22;;;;;;;8.65;4.60;;;;;;;2.34;34.28;102289.06;5088918;28;20683;-73
2021/03/07 04:17:11;;;;;;;8.75;4.78;;;;;;;2.31;34.31;102291.84;5086889;28;20382;-73
2021/03/07 04:19:58;;;;;;;9.18;5.13;;;;;;;2.28;33.86;102293.75;5090776;28;20554;-73
2021/03/07 04:22:48;;;;;;;7.47;4.10;;;;;;;2.26;34.18;102292.91;5091797;28;20463;-73
2021/03/07 04:25:36;;;;;;;6.47;3.67;;;;;;;2.22;34.56;102297.50;5091305;28;20115;-74
2021/03/07 04:28:24;;;;;;;8.07;3.80;;;;;;;2.20;34.42;102293.97;5089421;28;20044;-73
2021/03/07 04:31:12;;;;;;;5.75;3.55;;;;;;;2.18;34.37;102298.53;5077724;28;20058;-73
2021/03/07 04:34:01;;;;;;;6.30;3.97;;;;;;;2.15;34.65;102294.09;5096418;28;20382;-73
2021/03/07 04:36:50;;;;;;;7.68;3.67;;;;;;;2.13;34.39;102300.50;5089876;28;20044;-73
2021/03/07 04:39:37;;;;;;;7.53;4.00;;;;;;;2.10;34.63;102293.34;5087389;28;20422;-73
2021/03/07 04:42:24;;;;;;;5.53;3.70;;;;;;;2.08;34.29;102288.91;5090206;28;20051;-73
2021/03/07 04:45:14;;;;;;;6.40;3.40;;;;;;;2.07;34.63;102287.13;5094544;28;20097;-73
2021/03/07 04:48:01;;;;;;;6.45;3.40;;;;;;;2.05;34.24;102287.19;5092562;28;20052;-73
2021/03/07 04:50:29;;;;;;;6.75;3.63;;;;;;;2.06;34.70;102282.66;5095507;28;20044;-73
2021/03/07 04:52:56;;;;;;;6.60;3.97;;;;;;;2.02;34.58;102278.31;5088042;28;20097;-73
2021/03/07 04:55:43;;;;;;;6.03;3.42;;;;;;;2.00;34.43;102283.75;5085812;28;20048;-73
2021/03/07 04:58:11;;;;;;;6.00;3.95;;;;;;;1.99;34.74;102278.38;5080950;28;20114;-73
2021/03/07 05:00:38;;;;;;;6.38;3.60;;;;;;;1.97;34.64;102278.41;5086816;28;20047;-73
2021/03/07 05:03:05;;;;;;;7.53;3.90;;;;;;;1.95;34.53;102276.72;5096488;28;20036;-73
2021/03/07 05:05:34;;;;;;;5.47;3.75;;;;;;;1.93;34.78;102268.66;5072920;28;20105;-73
2021/03/07 05:08:02;;;;;;;6.60;3.90;;;;;;;1.91;34.81;102261.50;5091296;28;20040;-73
2021/03/07 05:10:32;;;;;;;7.50;4.22;;;;;;;1.90;34.88;102265.13;5067836;28;20361;-73
2021/03/07 05:13:00;;;;;;;7.28;3.70;;;;;;;1.88;34.78;102259.81;5091919;28;20039;-73
2021/03/07 05:15:27;;;;;;;5.45;3.67;;;;;;;1.87;34.94;102259.84;5083727;28;20045;-73
2021/03/07 05:17:54;;;;;;;5.80;3.88;;;;;;;1.86;34.88;102258.97;5095177;28;20039;-73
2021/03/07 05:20:22;;;;;;;6.50;4.00;;;;;;;1.84;34.69;102252.72;5089827;28;20130;-73
2021/03/07 05:22:54;;;;;;;5.82;3.63;;;;;;;1.84;34.61;102254.53;5067562;28;20036;-73
2021/03/07 05:25:21;;;;;;;5.50;3.55;;;;;;;1.82;35.09;102248.28;5083531;28;20056;-73
2021/03/07 05:27:54;;;;;;;5.40;3.55;;;;;;;1.81;34.82;102254.63;5084576;28;20135;-73
2021/03/07 05:30:24;;;;;;;6.82;3.95;;;;;;;1.81;34.72;102250.09;5082403;28;20478;-73
2021/03/07 05:32:54;;;;;;;7.88;3.50;;;;;;;1.78;34.76;102247.50;5080784;28;20393;-73
2021/03/07 05:35:21;;;;;;;6.43;3.42;;;;;;;1.76;34.82;102243.94;5080596;28;20048;-74
2021/03/07 05:37:50;;;;;;;5.78;3.67;;;;;;;1.75;34.68;102248.44;5081252;28;20407;-73
2021/03/07 05:40:19;;;;;;;5.50;3.47;;;;;;;1.74;34.95;102241.28;5082450;28;20040;-74
2021/03/07 05:42:46;;;;;;;6.10;3.55;;;;;;;1.72;34.97;102242.28;5083013;28;20503;-73
2021/03/07 05:45:24;;;;;;;5.25;3.40;;;;;;;1.70;34.93;102246.81;5083767;28;20044;-73
2021/03/07 05:47:56;;;;;;;4.93;3.35;;;;;;;1.70;34.79;102244.13;5080703;28;20135;-73
2021/03/07 05:50:24;;;;;;;5.88;3.58;;;;;;;1.68;34.97;102245.97;5078668;28;20080;-73
2021/03/07 05:52:54;;;;;;;7.75;3.75;;;;;;;1.67;34.99;102249.59;5064438;28;20050;-74
2021/03/07 05:55:25;;;;;;;6.55;4.20;;;;;;;1.66;34.94;102251.41;5083948;28;20092;-73
2021/03/07 05:57:58;;;;;;;6.95;4.00;;;;;;;1.65;35.33;102254.13;5078309;28;21475;-73
2021/03/07 06:00:26;;;;;;;8.20;4.30;;;;;;;1.62;35.00;102252.44;5066238;28;20048;-73
2021/03/07 06:02:54;;;;;;;6.63;4.15;;;;;;;1.58;34.88;102242.63;5077292;28;20047;-73
2021/03/07 06:05:25;;;;;;;6.55;4.07;;;;;;;1.58;35.33;102242.63;5079580;28;20044;-73
2021/03/07 06:07:56;;;;;;;7.00;4.13;;;;;;;1.57;34.82;102243.56;5064799;28;20048;-73
2021/03/07 06:10:39;;;;;;;8.52;4.05;;;;;;;1.58;35.76;102245.31;5081161;28;20046;-73
2021/03/07 06:13:10;;;;;;;7.15;3.95;;;;;;;1.55;34.99;102248.13;5080666;28;20055;-73
2021/03/07 06:16:07;;;;;;;6.75;3.95;;;;;;;1.56;35.59;102243.63;5078438;28;20097;-73
2021/03/07 06:18:41;;;;;;;6.60;4.00;;;;;;;1.53;35.43;102249.09;5065157;28;20487;-73
2021/03/07 06:21:30;;;;;;;6.85;4.10;;;;;;;1.52;35.54;102247.31;5077715;28;20391;-73
2021/03/07 06:24:02;;;;;;;9.30;4.03;;;;;;;1.49;35.01;102244.69;5079404;28;20036;-73
2021/03/07 06:26:31;;;;;;;7.05;3.80;;;;;;;1.48;35.42;102249.19;5081092;28;20139;-73
2021/03/07 06:29:07;;;;;;;5.45;3.60;;;;;;;1.47;35.46;102249.25;5076500;28;20058;-73
2021/03/07 06:31:36;;;;;;;5.35;3.72;;;;;;;1.44;35.56;102244.81;5080372;28;20043;-73
2021/03/07 06:34:08;;;;;;;6.10;3.83;;;;;;;1.43;35.32;102243.03;5045200;28;20052;-73
2021/03/07 06:36:40;;;;;;;6.90;3.90;;;;;;;1.40;35.09;102246.69;5071811;28;20382;-73
2021/03/07 06:39:10;;;;;;;6.95;4.15;;;;;;;1.43;34.95;102239.47;5067833;28;20043;-73
2021/03/07 06:41:40;;;;;;;6.40;3.88;;;;;;;1.42;35.45;102241.28;5062897;28;20058;-73
2021/03/07 06:44:10;;;;;;;5.82;3.63;;;;;;;1.42;35.74;102252.06;5083149;28;20043;-73
2021/03/07 06:46:46;;;;;;;6.25;3.80;;;;;;;1.41;35.69;102247.59;5063255;28;20537;-73
2021/03/07 06:49:40;;;;;;;7.30;4.32;;;;;;;1.41;36.06;102253.88;5079648;28;20043;-73
2021/03/07 06:52:14;;;;;;;5.93;3.67;;;;;;;1.39;35.86;102252.16;5086499;28;20075;-73
2021/03/07 06:55:03;;;;;;;6.15;3.97;;;;;;;1.39;35.77;102255.72;5078994;28;20063;-73
2021/03/07 06:57:36;;;;;;;6.50;3.65;;;;;;;1.41;35.58;102252.97;5060409;28;20122;-73
2021/03/07 07:00:07;;;;;;;6.03;3.90;;;;;;;1.41;36.11;102251.16;5079065;28;20036;-74
2021/03/07 07:03:07;;;;;;;6.25;3.92;;;;;;;1.45;36.58;102252.00;5085156;28;20048;-73
2021/03/07 07:05:55;;;;;;;6.28;3.65;;;;;;;1.46;36.25;102260.97;5080538;28;20056;-74
2021/03/07 07:08:45;;;;;;;6.95;4.20;;;;;;;1.49;36.45;102261.75;5090701;28;20126;-74
2021/03/07 07:11:42;;;;;;;6.32;3.67;;;;;;;1.56;36.87;102257.09;5072097;28;20547;-73
2021/03/07 07:14:39;;;;;;;6.90;4.20;;;;;;;1.59;37.01;102249.81;5088909;28;20046;-75
2021/03/07 07:17:27;;;;;;;6.50;3.78;;;;;;;1.59;36.67;102249.81;5090601;28;20060;-74
2021/03/07 07:20:14;;;;;;;6.25;3.55;;;;;;;1.66;36.31;102253.22;5072597;28;21811;-74
2021/03/07 07:22:46;;;;;;;5.63;3.90;;;;;;;1.71;36.58;102251.28;5065809;28;20522;-74
2021/03/07 07:25:34;;;;;;;5.88;4.05;;;;;;;1.79;37.07;102250.16;5096691;28;20690;-74
2021/03/07 07:28:03;;;;;;;7.00;4.05;;;;;;;1.92;37.15;102253.38;5091534;28;20105;-74
2021/03/07 07:31:00;;;;;;;5.78;4.30;;;;;;;2.07;38.10;102249.34;5095924;28;20048;-74
2021/03/07 07:33:53;;;;;;;7.00;4.30;;;;;;;2.23;37.62;102258.78;5099472;28;20136;-74
2021/03/07 07:36:43;;;;;;;6.72;4.25;;;;;;;2.40;37.64;102253.75;5078663;28;20056;-73
2021/03/07 07:39:32;;;;;;;7.88;4.82;;;;;;;2.54;37.70;102256.06;5097752;28;20139;-74
2021/03/07 07:42:23;;;;;;;7.68;4.28;;;;;;;2.69;37.33;102254.69;5104264;28;20138;-73
2021/03/07 07:45:19;;;;;;;5.82;4.13;;;;;;;2.86;37.58;102260.44;5090432;28;20052;-74
2021/03/07 07:48:08;;;;;;;6.72;4.88;;;;;;;2.96;36.99;102253.78;5095885;28;20052;-73
2021/03/07 07:50:55;;;;;;;7.05;4.63;;;;;;;3.10;37.17;102254.25;5101222;28;20050;-73
2021/03/07 07:53:43;;;;;;;6.75;4.22;;;;;;;3.23;37.09;102255.59;5087438;28;20054;-74
2021/03/07 07:56:38;;;;;;;6.85;4.63;;;;;;;3.38;37.20;102247.88;5098773;28;20486;-74
2021/03/07 07:59:51;;;;;;;7.15;4.43;;;;;;;3.50;36.87;102258.31;5093610;28;20063;-74
2021/03/07 08:02:58;;;;;;;7.35;4.40;;;;;;;3.60;36.68;102247.13;5113884;28;20063;-74
2021/03/07 08:05:46;;;;;;;6.80;4.63;;;;;;;3.68;36.40;102246.88;5113786;28;20047;-74
2021/03/07 08:08:36;;;;;;;7.97;5.13;;;;;;;3.79;35.95;102246.47;5104785;28;20052;-74
2021/03/07 08:11:30;;;;;;;7.05;4.63;;;;;;;3.87;36.36;102245.25;5109545;28;20398;-74
2021/03/07 08:14:34;;;;;;;5.82;4.18;;;;;;;3.92;35.97;102248.69;5095055;28;20043;-73
2021/03/07 08:17:53;;;;;;;8.70;5.18;;;;;;;3.96;35.90;102244.91;5113449;28;20075;-73
2021/03/07 08:20:54;;;;;;;8.65;5.35;;;;;;;3.99;35.94;102235.81;5104999;28;20117;-73
2021/03/07 08:23:51;;;;;;;7.63;5.22;;;;;;;3.97;35.36;102241.28;5079116;28;20051;-73
2021/03/07 08:26:19;;;;;;;7.60;5.45;;;;;;;4.00;35.40;102240.28;5078885;28;20089;-73
2021/03/07 08:28:59;;;;;;;8.05;5.43;;;;;;;4.01;35.62;102232.13;5080845;28;20055;-73
2021/03/07 08:31:38;;;;;;;6.55;4.93;;;;;;;4.03;35.25;102223.91;5062442;28;20040;-73
2021/03/07 08:34:24;;;;;;;7.78;5.25;;;;;;;4.01;35.68;102218.56;5062238;28;20036;-73
2021/03/07 08:37:17;;;;;;;8.48;5.80;;;;;;;3.99;35.27;102215.03;5086061;28;20044;-73
2021/03/07 08:40:28;;;;;;;7.43;4.85;;;;;;;3.97;35.34;102214.19;5078052;28;20056;-73
2021/03/07 08:43:55;;;;;;;7.93;5.10;;;;;;;3.97;35.44;102210.59;5055268;28;20130;-73
2021/03/07 08:46:47;;;;;;;8.70;5.60;;;;;;;3.95;35.64;102207.06;5084890;28;20047;-73
2021/03/07 08:49:39;;;;;;;8.90;6.07;;;;;;;3.94;35.38;102210.75;5076681;28;20510;-73
2021/03/07 08:52:25;;;;;;;6.78;4.70;;;;;;;3.94;35.40;102202.63;5063841;28;20029;-73
2021/03/07 08:55:15;;;;;;;8.85;6.22;;;;;;;3.94;35.31;102198.09;5083697;28;20048;-73
2021/03/07 08:58:03;;;;;;;8.55;6.32;;;;;;;3.95;35.29;102202.53;5091476;28;20044;-73
2021/03/07 09:00:52;;;;;;;8.27;5.68;;;;;;;3.96;35.40;102203.44;5065710;28;20497;-74
2021/03/07 09:03:40;;;;;;;8.75;5.35;;;;;;;3.96;35.55;102198.00;5081932;28;20049;-73
2021/03/07 09:06:31;;;;;;;9.70;6.50;;;;;;;3.99;35.28;102198.78;5086448;28;20062;-73
2021/03/07 09:09:13;;;;;;;8.50;6.18;;;;;;;4.02;35.13;102192.38;5061678;28;20047;-73
2021/03/07 09:12:03;;;;;;;11.07;5.85;;;;;;;4.04;35.38;102196.78;5093673;28;20043;-73
2021/03/07 09:14:54;;;;;;;8.93;6.05;;;;;;;4.05;35.50;102190.44;5092423;28;20060;-74
2021/03/07 09:17:41;;;;;;;8.82;5.80;;;;;;;4.09;35.35;102193.91;5084618;28;20056;-73
2021/03/07 09:20:15;;;;;;;10.38;6.50;;;;;;;4.14;35.27;102193.72;5073980;28;20380;-73
2021/03/07 09:23:02;;;;;;;8.57;5.78;;;;;;;4.16;35.39;102191.84;5091316;28;20060;-73
2021/03/07 09:25:50;;;;;;;9.52;6.80;;;;;;;4.21;35.30;102190.72;5081988;28;20078;-73
2021/03/07 09:28:40;;;;;;;8.75;5.93;;;;;;;4.26;35.46;102188.75;5084214;28;20764;-73
2021/03/07 09:31:34;;;;;;;7.20;5.43;;;;;;;4.32;35.25;102191.19;5087054;28;20056;-73
2021/03/07 09:34:31;;;;;;;8.57;5.43;;;;;;;4.40;35.06;102193.59;5092541;28;20410;-73
2021/03/07 09:37:21;;;;;;;9.02;5.72;;;;;;;4.42;35.33;102187.19;5078994;28;20048;-73
2021/03/07 09:40:11;;;;;;;8.25;4.95;;;;;;;4.50;35.00;102181.47;5080087;28;20403;-74
2021/03/07 09:43:04;;;;;;;9.18;5.82;;;;;;;4.58;34.73;102183.88;5083341;28;20426;-74
2021/03/07 09:45:51;;;;;;;7.13;5.28;;;;;;;4.60;35.11;102188.28;5087552;28;20139;-73
2021/03/07 09:48:40;;;;;;;7.57;5.95;;;;;;;4.68;34.88;102183.44;5086462;28;20048;-73
2021/03/07 09:51:30;;;;;;;8.82;6.05;;;;;;;4.75;34.93;102182.25;5088875;28;20108;-73
2021/03/07 09:54:18;;;;;;;8.95;5.10;;;;;;;4.81;34.88;102172.97;5081468;28;20093;-73
2021/03/07 09:57:06;;;;;;;8.35;6.22;;;;;;;4.85;34.91;102175.47;5090148;28;20047;-73
2021/03/07 09:59:53;;;;;;;8.38;6.20;;;;;;;4.92;34.92;102172.53;5090306;28;20051;-73
2021/03/07 10:02:40;;;;;;;7.60;5.88;;;;;;;5.00;35.12;102170.38;5066776;28;20040;-73
2021/03/07 10:05:29;;;;;;;9.18;5.78;;;;;;;5.06;35.02;102162.84;5089478;28;20048;-73
2021/03/07 10:08:23;;;;;;;6.78;5.47;;;;;;;5.15;34.59;102167.00;5090095;28;20050;-73
2021/03/07 10:11:14;;;;;;;;;;;;;;;4.93;35.31;102169.75;5097451;28;20150;-73
2021/03/07 10:14:06;;;;;;;7.68;5.53;;;;;;;5.22;35.13;102161.25;5095146;28;19920;-73
2021/03/07 10:16:54;;;;;;;8.88;6.18;;;;;;;5.31;35.18;102164.50;5099303;28;20122;-73
2021/03/07 10:19:41;;;;;;;9.82;6.43;;;;;;;5.39;34.94;102163.22;5078852;28;20054;-73
2021/03/07 10:22:37;;;;;;;9.65;6.78;;;;;;;5.50;35.04;102160.97;5103548;28;20138;-73
2021/03/07 10:25:27;;;;;;;7.70;5.70;;;;;;;5.56;35.14;102157.06;5102854;28;20051;-73
2021/03/07 10:28:21;;;;;;;7.85;5.97;;;;;;;5.66;35.72;102157.56;5093872;28;20395;-73
2021/03/07 10:31:10;;;;;;;8.48;5.70;;;;;;;5.72;35.38;102157.25;5093528;28;20059;-72
2021/03/07 10:33:58;;;;;;;8.48;4.95;;;;;;;5.79;35.09;102150.59;5075230;28;20036;-73
2021/03/07 10:36:49;;;;;;;10.35;6.25;;;;;;;5.86;35.24;102150.25;5093355;28;20052;-73
2021/03/07 10:39:37;;;;;;;8.00;5.60;;;;;;;5.93;35.23;102142.69;5084794;28;20047;-73
2021/03/07 10:42:31;;;;;;;7.88;5.13;;;;;;;5.99;35.05;102145.13;5073059;28;20144;-73
2021/03/07 10:45:20;;;;;;;7.63;5.07;;;;;;;6.03;35.23;102146.75;5089680;28;20060;-73
2021/03/07 10:48:10;;;;;;;8.27;5.40;;;;;;;6.10;34.94;102148.22;5078445;28;20063;-73
2021/03/07 10:50:58;;;;;;;7.47;5.07;;;;;;;6.18;34.81;102153.28;5107809;28;20126;-73
2021/03/07 10:53:45;;;;;;;8.15;5.85;;;;;;;6.26;34.82;102149.25;5090149;28;20124;-73
2021/03/07 10:56:13;;;;;;;7.97;6.07;;;;;;;6.35;34.71;102148.81;5093413;28;20499;-73
2021/03/07 10:58:43;;;;;;;8.10;5.75;;;;;;;6.41;34.57;102150.38;5075010;28;20051;-73
2021/03/07 11:01:15;;;;;;;7.95;5.82;;;;;;;6.46;33.58;102141.97;5060049;28;20040;-73
2021/03/07 11:03:44;;;;;;;8.18;6.32;;;;;;;6.45;33.79;102137.50;5079906;28;20143;-73
2021/03/07 11:06:11;;;;;;;7.35;5.70;;;;;;;6.48;33.42;102135.53;5077225;28;20048;-73
2021/03/07 11:08:39;;;;;;;7.70;5.60;;;;;;;6.53;33.38;102133.44;5076276;28;20180;-73
2021/03/07 11:11:06;;;;;;;9.18;6.22;;;;;;;6.56;33.39;102133.31;5046559;28;20051;-73
2021/03/07 11:13:35;;;;;;;7.82;5.55;;;;;;;6.60;33.40;102126.75;5086221;28;20052;-73
2021/03/07 11:16:06;;;;;;;7.78;5.30;;;;;;;6.62;33.41;102127.56;5071942;28;20052;-72
2021/03/07 11:18:34;;;;;;;9.63;6.22;;;;;;;6.64;33.20;102128.38;5070525;28;20043;-73
2021/03/07 11:21:02;;;;;;;9.35;5.68;;;;;;;6.67;33.43;102120.03;5069669;28;20123;-72
2021/03/07 11:23:30;;;;;;;6.32;4.72;;;;;;;6.73;33.25;102129.75;5078896;28;20040;-72
2021/03/07 11:25:57;;;;;;;6.45;4.65;;;;;;;6.75;33.26;102109.66;5076081;28;20040;-72
2021/03/07 11:28:25;;;;;;;5.80;4.25;;;;;;;6.79;33.37;102113.13;5071032;28;20048;-72
2021/03/07 11:30:53;;;;;;;7.40;4.97;;;;;;;6.84;33.39;102113.75;5067256;28;20570;-72
2021/03/07 11:33:21;;;;;;;6.25;4.90;;;;;;;6.89;33.47;102106.25;5081933;28;20037;-72
2021/03/07 11:35:49;;;;;;;6.35;4.82;;;;;;;6.93;33.38;102107.84;5082751;28;20097;-72
2021/03/07 11:38:16;;;;;;;6.38;5.20;;;;;;;6.99;32.85;102104.84;5081620;28;20040;-73
2021/03/07 11:40:44;;;;;;;7.28;5.40;;;;;;;7.02;32.93;102104.66;5077212;28;20052;-72
2021/03/07 11:43:12;;;;;;;7.82;5.28;;;;;;;7.07;32.78;102105.34;5058727;28;20044;-73
2021/03/07 11:45:39;;;;;;;7.85;5.28;;;;;;;7.10;32.70;102107.00;5074979;28;20048;-72
2021/03/07 11:48:08;;;;;;;7.53;6.00;;;;;;;7.10;32.42;102105.16;5060311;28;20505;-72
2021/03/07 11:50:37;;;;;;;7.82;6.05;;;;;;;7.15;32.08;102093.19;5077312;28;20094;-72
2021/03/07 11:53:05;;;;;;;8.30;6.18;;;;;;;7.16;32.59;102084.06;5074370;28;20091;-73
2021/03/07 11:55:33;;;;;;;7.60;6.78;;;;;;;7.20;32.57;102072.91;5074592;28;20044;-73
2021/03/07 11:58:00;;;;;;;8.20;6.88;;;;;;;7.23;32.23;102070.03;5074289;28;20052;-73
2021/03/07 12:00:27;;;;;;;9.13;8.07;;;;;;;7.26;32.21;102068.97;5074006;28;20093;-73
2021/03/07 12:02:57;;;;;;;9.35;8.35;;;;;;;7.27;31.92;102060.75;5065309;28;20123;-72
2021/03/07 12:05:29;;;;;;;9.05;8.13;;;;;;;7.34;31.74;102062.16;5058067;28;20044;-73
2021/03/07 12:07:57;;;;;;;8.77;7.82;;;;;;;7.35;32.16;102053.03;5075999;28;20097;-72
2021/03/07 12:10:25;;;;;;;9.02;7.50;;;;;;;7.39;32.02;102057.38;5073433;28;20044;-73
2021/03/07 12:12:53;;;;;;;8.80;6.60;;;;;;;7.43;31.87;102050.78;5072220;28;20166;-73
2021/03/07 12:15:20;;;;;;;8.95;7.00;;;;;;;7.43;31.74;102048.06;5075599;28;20049;-73
2021/03/07 12:17:48;;;;;;;8.68;7.55;;;;;;;7.47;31.54;102048.78;5073118;28;20040;-73
2021/03/07 12:20:16;;;;;;;8.13;6.95;;;;;;;7.51;31.67;102047.63;5074561;28;20044;-73
2021/03/07 12:22:45;;;;;;;9.27;7.38;;;;;;;7.55;31.22;102045.63;5073542;28;20040;-73
2021/03/07 12:25:18;;;;;;;9.77;7.25;;;;;;;7.56;31.39;102044.69;5075983;28;20385;-73
2021/03/07 12:27:48;;;;;;;7.80;7.00;;;;;;;7.62;31.14;102045.22;5073052;28;20419;-73
2021/03/07 12:30:17;;;;;;;10.27;7.22;;;;;;;7.64;31.28;102036.97;5068158;28;20128;-73